Time;durP1;ratioP1;P1;durP2;ratioP2;P2;SDS_P1;SDS_P2;PMS_P1;PMS_P2;Temp;Humidity;BMP_temperature;BMP_pressure;BME280_temperature;BME280_humidity;BME280_pressure;Samples;Min_cycle;Max_cycle;Signal;HPM_P1;HPM_P2
2022/11/15 00:00:17;;;;;;;32.30;18.73;;;7.60;99.90;;;;;;5047848;28;20093;-69
2022/11/15 00:02:43;;;;;;;29.95;18.45;;;7.60;99.90;;;;;;5044628;28;20059;-68
2022/11/15 00:05:08;;;;;;;30.20;18.45;;;7.60;99.90;;;;;;5044365;28;20032;-68
2022/11/15 00:07:34;;;;;;;28.08;19.25;;;7.90;99.90;;;;;;5065633;28;20041;-68
2022/11/15 00:10:00;;;;;;;31.55;19.55;;;7.80;99.90;;;;;;5046265;28;20383;-69
2022/11/15 00:12:27;;;;;;;31.55;19.90;;;7.50;99.90;;;;;;5050436;28;20044;-69
2022/11/15 00:14:53;;;;;;;30.13;18.60;;;7.50;99.90;;;;;;5049392;28;20051;-68
2022/11/15 00:17:19;;;;;;;30.42;18.80;;;7.50;99.90;;;;;;5066558;28;20040;-69
2022/11/15 00:19:45;;;;;;;31.92;18.65;;;7.40;99.90;;;;;;5050516;28;20553;-69
2022/11/15 00:22:10;;;;;;;33.50;19.60;;;7.40;99.90;;;;;;5066026;28;20051;-69
2022/11/15 00:24:36;;;;;;;29.40;18.90;;;7.40;99.90;;;;;;5048604;28;20514;-68
2022/11/15 00:27:02;;;;;;;32.90;18.80;;;7.40;99.90;;;;;;5033043;28;20040;-68
2022/11/15 00:29:28;;;;;;;32.50;19.15;;;7.30;99.90;;;;;;5047834;28;20052;-69
2022/11/15 00:31:53;;;;;;;34.28;18.95;;;7.40;99.90;;;;;;5066567;28;20048;-69
2022/11/15 00:34:19;;;;;;;29.05;18.08;;;7.30;99.90;;;;;;5052716;28;20047;-68
2022/11/15 00:36:45;;;;;;;32.33;18.65;;;7.30;99.90;;;;;;5048557;28;20417;-69
2022/11/15 00:39:10;;;;;;;32.63;19.25;;;7.30;99.90;;;;;;5049828;28;20052;-70
2022/11/15 00:41:36;;;;;;;30.05;19.05;;;7.30;99.90;;;;;;5050268;28;20048;-69
2022/11/15 00:44:02;;;;;;;32.05;19.25;;;7.30;99.90;;;;;;5053342;28;20401;-69
2022/11/15 00:46:27;;;;;;;29.77;19.40;;;7.30;99.90;;;;;;5048501;28;20044;-69
2022/11/15 00:48:53;;;;;;;31.65;20.02;;;7.30;99.90;;;;;;5030964;28;20041;-68
2022/11/15 00:51:19;;;;;;;29.08;18.85;;;7.40;99.90;;;;;;5049460;28;20040;-68
2022/11/15 00:53:45;;;;;;;30.27;18.90;;;7.40;99.90;;;;;;5042842;28;20102;-68
2022/11/15 00:56:10;;;;;;;32.40;19.77;;;7.40;99.90;;;;;;5029775;28;20048;-68
2022/11/15 00:58:36;;;;;;;30.50;19.00;;;7.40;99.90;;;;;;5049363;28;20048;-68
2022/11/15 01:01:07;;;;;;;29.08;18.73;;;7.90;99.90;;;;;;5028050;28;20029;-69
2022/11/15 01:03:34;;;;;;;29.25;18.95;;;7.40;99.90;;;;;;5048882;28;20048;-68
2022/11/15 01:06:00;;;;;;;32.53;19.33;;;7.40;99.90;;;;;;5065255;28;20402;-68
2022/11/15 01:08:26;;;;;;;32.65;20.33;;;7.40;99.90;;;;;;5044992;28;20106;-68
2022/11/15 01:10:52;;;;;;;29.27;19.80;;;7.60;99.90;;;;;;5048280;28;20076;-68
2022/11/15 01:13:17;;;;;;;30.83;18.88;;;7.40;99.90;;;;;;5064120;28;20040;-68
2022/11/15 01:15:43;;;;;;;31.60;20.45;;;7.40;99.90;;;;;;5066683;28;20040;-68
2022/11/15 01:18:09;;;;;;;31.80;19.15;;;7.40;99.90;;;;;;5031806;28;20046;-68
2022/11/15 01:20:40;;;;;;;28.83;18.75;;;7.40;99.90;;;;;;5049600;28;20041;-68
2022/11/15 01:23:06;;;;;;;30.08;18.40;;;7.50;99.90;;;;;;5029227;28;20055;-69
2022/11/15 01:25:31;;;;;;;34.78;21.27;;;7.40;99.90;;;;;;5030089;28;20044;-68
2022/11/15 01:27:57;;;;;;;32.58;21.00;;;7.40;99.90;;;;;;5046985;28;20047;-68
2022/11/15 01:30:23;;;;;;;33.90;22.20;;;7.40;99.90;;;;;;5049301;28;20093;-68
2022/11/15 01:32:49;;;;;;;30.75;20.77;;;7.40;99.90;;;;;;5048532;28;20041;-69
2022/11/15 01:35:14;;;;;;;33.05;22.13;;;7.40;99.90;;;;;;5031090;28;20045;-68
2022/11/15 01:37:40;;;;;;;34.70;22.77;;;7.40;99.90;;;;;;5048684;28;20513;-68
2022/11/15 01:40:06;;;;;;;33.67;22.15;;;7.40;99.90;;;;;;5047715;28;20040;-68
2022/11/15 01:42:32;;;;;;;35.65;22.90;;;7.40;99.90;;;;;;5047269;28;20098;-68
2022/11/15 01:44:57;;;;;;;35.00;22.30;;;7.40;99.90;;;;;;5063032;28;20460;-68
2022/11/15 01:47:30;;;;;;;32.80;22.55;;;7.40;99.90;;;;;;5062702;28;20052;-69
2022/11/15 01:50:11;;;;;;;33.33;21.92;;;7.40;99.90;;;;;;5063677;28;20072;-68
2022/11/15 01:52:39;;;;;;;36.17;22.95;;;7.30;99.90;;;;;;5048943;28;20040;-69
2022/11/15 01:55:21;;;;;;;35.17;22.38;;;7.50;99.90;;;;;;5048158;28;20047;-69
2022/11/15 01:57:52;;;;;;;32.00;21.65;;;7.30;99.90;;;;;;5045997;28;20041;-68
2022/11/15 02:00:18;;;;;;;35.40;22.48;;;7.30;99.90;;;;;;5046527;28;20113;-68
2022/11/15 02:02:44;;;;;;;38.55;22.13;;;7.30;99.90;;;;;;5065092;28;20029;-68
2022/11/15 02:05:10;;;;;;;34.53;22.40;;;7.30;99.90;;;;;;5049785;28;20056;-69
2022/11/15 02:07:36;;;;;;;32.47;20.63;;;7.30;99.90;;;;;;5047828;28;20046;-69
2022/11/15 02:10:11;;;;;;;35.28;20.65;;;7.20;99.90;;;;;;5048423;28;20094;-69
2022/11/15 02:12:37;;;;;;;29.75;20.17;;;7.20;99.90;;;;;;5060984;28;20070;-68
2022/11/15 02:15:05;;;;;;;35.65;21.88;;;7.20;99.90;;;;;;5045668;28;20045;-68
2022/11/15 02:17:57;;;;;;;32.22;20.00;;;7.20;99.90;;;;;;5045823;28;20033;-68
2022/11/15 02:20:43;;;;;;;31.85;20.77;;;7.20;99.90;;;;;;5043280;28;20055;-68
2022/11/15 02:23:21;;;;;;;32.03;19.70;;;7.50;99.90;;;;;;5065422;28;20040;-68
2022/11/15 02:26:07;;;;;;;31.88;19.83;;;7.20;99.90;;;;;;5062790;28;20048;-68
2022/11/15 02:28:51;;;;;;;29.60;18.05;;;7.30;99.90;;;;;;5035299;28;20055;-68
2022/11/15 02:31:20;;;;;;;29.33;18.25;;;7.20;99.90;;;;;;5066133;28;20181;-68
2022/11/15 02:33:55;;;;;;;28.88;17.85;;;7.20;99.90;;;;;;5033793;28;20405;-68
2022/11/15 02:36:45;;;;;;;31.45;18.90;;;7.20;99.90;;;;;;5047401;28;20047;-68
2022/11/15 02:39:27;;;;;;;35.30;19.85;;;7.20;99.90;;;;;;5046554;28;20127;-69
2022/11/15 02:42:03;;;;;;;36.25;19.50;;;7.20;99.90;;;;;;5063249;28;20598;-68
2022/11/15 02:44:43;;;;;;;33.25;20.80;;;7.20;99.90;;;;;;5046257;28;20044;-68
2022/11/15 02:47:15;;;;;;;34.85;19.80;;;7.20;99.90;;;;;;5048027;28;20045;-68
2022/11/15 02:49:49;;;;;;;36.58;19.60;;;7.20;99.90;;;;;;5063171;28;20550;-69
2022/11/15 02:52:27;;;;;;;36.47;20.48;;;7.20;99.90;;;;;;5064315;28;20504;-68
2022/11/15 02:54:57;;;;;;;37.92;21.17;;;7.20;99.90;;;;;;5056582;28;20436;-68
2022/11/15 02:57:51;;;;;;;32.67;19.40;;;7.20;99.90;;;;;;5028753;28;20067;-68
2022/11/15 03:00:20;;;;;;;38.08;21.35;;;7.20;99.90;;;;;;5046071;28;20436;-68
2022/11/15 03:03:01;;;;;;;35.40;21.10;;;7.20;99.90;;;;;;5047747;28;20083;-69
2022/11/15 03:05:53;;;;;;;38.73;21.47;;;7.20;99.90;;;;;;5065039;28;20045;-68
2022/11/15 03:08:43;;;;;;;34.90;19.52;;;7.20;99.90;;;;;;5063319;28;20048;-69
2022/11/15 03:11:10;;;;;;;33.22;20.08;;;7.20;99.90;;;;;;5062416;28;20148;-68
2022/11/15 03:14:07;;;;;;;37.92;20.92;;;7.20;99.90;;;;;;5027324;28;20121;-68
2022/11/15 03:16:56;;;;;;;39.13;21.30;;;7.20;99.90;;;;;;5063005;28;20044;-68
2022/11/15 03:19:30;;;;;;;41.25;22.13;;;7.20;99.90;;;;;;5062640;28;20036;-68
2022/11/15 03:21:59;;;;;;;41.65;21.95;;;7.20;99.90;;;;;;5030485;28;20529;-68
2022/11/15 03:24:26;;;;;;;36.35;21.15;;;7.20;99.90;;;;;;5066255;28;20037;-68
2022/11/15 03:26:55;;;;;;;39.00;22.42;;;7.20;99.90;;;;;;5066077;28;20653;-68
2022/11/15 03:29:27;;;;;;;38.90;21.52;;;7.20;99.90;;;;;;5046466;28;20055;-68
2022/11/15 03:32:00;;;;;;;42.65;22.00;;;7.20;99.90;;;;;;5065535;28;20394;-68
2022/11/15 03:34:40;;;;;;;40.30;20.65;;;7.20;99.90;;;;;;5063908;28;20257;-68
2022/11/15 03:37:08;;;;;;;41.33;21.73;;;7.20;99.90;;;;;;5063676;28;20036;-68
2022/11/15 03:39:33;;;;;;;39.75;21.77;;;7.40;99.90;;;;;;5032981;28;20036;-68
2022/11/15 03:42:11;;;;;;;38.78;20.77;;;7.20;99.90;;;;;;5067182;28;20085;-68
2022/11/15 03:45:03;;;;;;;41.47;21.58;;;7.30;99.90;;;;;;5047874;28;20076;-69
2022/11/15 03:47:36;;;;;;;43.65;21.48;;;7.30;99.90;;;;;;5051650;28;20044;-69
2022/11/15 03:50:10;;;;;;;50.13;22.90;;;7.30;99.90;;;;;;5067675;28;20048;-68
2022/11/15 03:52:37;;;;;;;40.05;22.38;;;7.30;99.90;;;;;;5037645;28;20052;-68
2022/11/15 03:55:04;;;;;;;41.53;21.08;;;7.40;99.90;;;;;;5067278;28;20040;-68
2022/11/15 03:57:30;;;;;;;44.35;22.55;;;7.30;99.90;;;;;;5064664;28;20560;-68
2022/11/15 03:59:56;;;;;;;45.60;21.20;;;7.30;99.90;;;;;;5050140;28;20040;-68
2022/11/15 04:02:22;;;;;;;40.53;21.30;;;7.30;99.90;;;;;;5050823;28;20052;-68
2022/11/15 04:04:48;;;;;;;43.65;21.30;;;7.40;99.90;;;;;;5050598;28;20098;-69
2022/11/15 04:07:13;;;;;;;47.42;22.48;;;7.50;99.90;;;;;;5032270;28;20044;-69
2022/11/15 04:12:32;;;;;;;44.88;20.48;;;7.40;99.90;;;;;;5066043;28;20390;-69
2022/11/15 04:15:19;;;;;;;49.97;21.63;;;7.40;99.90;;;;;;5048546;28;20044;-69
2022/11/15 04:17:47;;;;;;;43.65;22.40;;;7.40;99.90;;;;;;5034321;28;20452;-69
2022/11/15 04:26:00;;;;;;;51.03;22.35;;;7.50;99.90;;;;;;5047670;28;20052;-69
2022/11/15 04:28:26;;;;;;;49.72;22.75;;;7.50;99.90;;;;;;5033761;28;20069;-68
2022/11/15 04:30:52;;;;;;;47.35;22.85;;;7.70;99.90;;;;;;5066868;28;20052;-68
2022/11/15 04:33:18;;;;;;;49.83;22.50;;;7.50;99.90;;;;;;5048000;28;20051;-68
2022/11/15 04:37:11;;;;;;;49.17;22.25;;;7.50;99.90;;;;;;5068935;28;20047;-69
2022/11/15 04:38:30;;;;;;;49.03;21.33;;;7.60;99.90;;;;;;5048363;28;20114;-68
2022/11/15 04:40:55;;;;;;;49.47;23.17;;;7.60;99.90;;;;;;5065457;28;20044;-68
2022/11/15 04:43:21;;;;;;;47.25;22.38;;;7.60;99.90;;;;;;5068337;28;20116;-69
2022/11/15 04:45:47;;;;;;;47.50;22.88;;;7.60;99.90;;;;;;5048476;28;20090;-68
2022/11/15 04:48:13;;;;;;;48.30;22.98;;;7.80;99.90;;;;;;5033378;28;20389;-68
2022/11/15 04:50:39;;;;;;;46.72;22.20;;;7.60;99.90;;;;;;5048301;28;20082;-68
2022/11/15 04:53:05;;;;;;;45.90;22.65;;;7.60;99.90;;;;;;5050250;28;20108;-69
2022/11/15 04:55:31;;;;;;;47.97;21.63;;;7.60;99.90;;;;;;5046926;28;20084;-69
2022/11/15 04:58:02;;;;;;;50.13;23.15;;;7.60;99.90;;;;;;5049335;28;20467;-68
2022/11/15 05:00:30;;;;;;;47.90;23.53;;;7.70;99.90;;;;;;5045749;28;20394;-69
2022/11/15 05:05:41;;;;;;;47.28;22.83;;;7.70;99.90;;;;;;5047781;28;20193;-69
2022/11/15 05:08:07;;;;;;;53.50;23.20;;;7.70;99.90;;;;;;5047582;28;20489;-69
2022/11/15 05:10:33;;;;;;;55.58;24.35;;;7.80;99.90;;;;;;5032107;28;20570;-69
2022/11/15 05:12:58;;;;;;;56.78;24.15;;;7.80;99.90;;;;;;5067801;28;20054;-69
2022/11/15 05:15:25;;;;;;;57.67;24.83;;;7.80;99.90;;;;;;5032098;28;20032;-69
2022/11/15 05:17:50;;;;;;;59.00;24.23;;;7.80;99.90;;;;;;5049933;28;20049;-69
2022/11/15 05:20:16;;;;;;;50.70;23.63;;;7.80;99.90;;;;;;5049855;28;20035;-69
2022/11/15 05:22:42;;;;;;;52.03;23.83;;;7.80;99.90;;;;;;5049949;28;20040;-69
2022/11/15 05:25:08;;;;;;;55.08;25.58;;;7.90;99.90;;;;;;5047837;28;20489;-69
2022/11/15 05:27:34;;;;;;;52.97;25.40;;;7.90;99.90;;;;;;5049993;28;20048;-69
2022/11/15 05:30:00;;;;;;;60.55;26.25;;;7.90;99.90;;;;;;5048237;28;20101;-69
2022/11/15 05:32:27;;;;;;;58.88;27.73;;;8.00;99.90;;;;;;5046051;28;20040;-69
2022/11/15 05:34:57;;;;;;;64.88;28.67;;;8.00;99.90;;;;;;5048600;28;20451;-69
2022/11/15 05:37:22;;;;;;;61.13;28.05;;;8.00;99.90;;;;;;5067206;28;21267;-69
2022/11/15 05:39:48;;;;;;;62.28;25.73;;;8.20;99.90;;;;;;5030542;28;20048;-69
2022/11/15 05:42:15;;;;;;;65.47;28.15;;;8.00;99.90;;;;;;5065568;28;20072;-68
2022/11/15 05:44:46;;;;;;;63.45;26.73;;;8.40;99.90;;;;;;5045453;28;20048;-68
2022/11/15 05:47:17;;;;;;;70.07;29.10;;;8.10;99.90;;;;;;5047127;28;20068;-68
2022/11/15 05:49:44;;;;;;;73.05;28.75;;;8.10;99.90;;;;;;5061361;28;20425;-69
2022/11/15 05:52:14;;;;;;;61.92;27.38;;;8.20;99.90;;;;;;5064321;28;20044;-69
2022/11/15 05:54:40;;;;;;;68.85;29.10;;;8.20;99.90;;;;;;5046141;28;20071;-69
2022/11/15 05:57:06;;;;;;;66.57;28.60;;;8.20;99.90;;;;;;5048436;28;20467;-69
2022/11/15 05:59:34;;;;;;;75.35;29.90;;;8.20;99.90;;;;;;5028494;28;20378;-69
2022/11/15 06:02:00;;;;;;;73.22;30.08;;;8.20;99.90;;;;;;5043904;28;20044;-69
2022/11/15 06:04:26;;;;;;;76.93;30.50;;;8.20;99.90;;;;;;5032082;28;20113;-68
2022/11/15 06:06:52;;;;;;;72.53;30.20;;;8.30;99.90;;;;;;5059107;28;20045;-69
2022/11/15 06:09:17;;;;;;;76.43;30.92;;;8.30;99.90;;;;;;5033883;28;20464;-69
2022/11/15 06:11:43;;;;;;;84.53;31.45;;;8.30;99.90;;;;;;5032188;28;20052;-69
2022/11/15 06:14:09;;;;;;;85.05;31.15;;;8.40;99.90;;;;;;5034273;28;20033;-69
2022/11/15 06:16:34;;;;;;;79.25;33.45;;;8.40;99.90;;;;;;5052916;28;20127;-69
2022/11/15 06:19:00;;;;;;;82.47;32.42;;;8.60;99.90;;;;;;5054374;28;20045;-68
2022/11/15 06:21:27;;;;;;;83.88;33.30;;;8.50;99.90;;;;;;5032863;28;20044;-67
2022/11/15 06:23:53;;;;;;;90.50;34.30;;;8.50;99.90;;;;;;5054994;28;20051;-69
2022/11/15 06:26:19;;;;;;;84.90;32.47;;;8.50;99.90;;;;;;5041510;28;20051;-69
2022/11/15 06:28:45;;;;;;;93.70;33.35;;;8.60;99.90;;;;;;5042896;28;20461;-69
2022/11/15 06:31:11;;;;;;;86.82;33.55;;;8.60;99.90;;;;;;5039503;28;20044;-69
2022/11/15 06:33:38;;;;;;;89.72;34.65;;;8.60;99.90;;;;;;5032982;28;20468;-68
2022/11/15 06:36:07;;;;;;;87.78;34.65;;;8.60;99.90;;;;;;5037182;28;20989;-69
2022/11/15 06:38:33;;;;;;;80.32;32.90;;;8.70;99.90;;;;;;5039204;28;20370;-69
2022/11/15 06:41:07;;;;;;;80.97;33.78;;;8.80;99.90;;;;;;5031027;28;20185;-69
2022/11/15 06:43:33;;;;;;;85.50;32.95;;;8.70;99.90;;;;;;5036925;28;20397;-69
2022/11/15 06:45:59;;;;;;;86.07;33.33;;;8.70;99.90;;;;;;5032476;28;20047;-69
2022/11/15 06:48:26;;;;;;;83.88;32.95;;;8.80;99.90;;;;;;5067331;28;20050;-69
2022/11/15 06:50:52;;;;;;;87.22;33.88;;;8.80;99.90;;;;;;5034195;28;20102;-68
2022/11/15 06:53:18;;;;;;;82.03;35.28;;;9.00;99.90;;;;;;5068781;28;20036;-69
2022/11/15 06:55:44;;;;;;;96.95;34.95;;;8.90;99.90;;;;;;5032745;28;20467;-69
2022/11/15 06:58:09;;;;;;;88.88;35.13;;;9.30;99.90;;;;;;5037070;28;20052;-69
2022/11/15 07:00:35;;;;;;;76.10;32.28;;;8.90;99.90;;;;;;5041585;28;20102;-69
2022/11/15 07:03:01;;;;;;;88.60;34.50;;;9.00;99.90;;;;;;5041453;28;20606;-69
2022/11/15 07:05:27;;;;;;;78.30;34.67;;;9.00;99.90;;;;;;5062932;28;20045;-69
2022/11/15 07:07:55;;;;;;;90.90;36.85;;;9.40;99.90;;;;;;5036862;28;20052;-69
2022/11/15 07:10:21;;;;;;;77.43;33.63;;;9.10;99.90;;;;;;5040008;28;20042;-69
2022/11/15 07:12:48;;;;;;;82.70;33.92;;;9.10;99.90;;;;;;5058221;28;20120;-68
2022/11/15 07:15:15;;;;;;;86.60;35.40;;;9.10;99.90;;;;;;5047613;28;20160;-69
2022/11/15 07:17:41;;;;;;;91.88;35.95;;;9.10;99.90;;;;;;5043819;28;20044;-69
2022/11/15 07:20:07;;;;;;;84.80;36.00;;;9.20;99.90;;;;;;5058944;28;20553;-70
2022/11/15 07:22:33;;;;;;;93.32;35.63;;;9.20;99.90;;;;;;5051777;28;20056;-68
2022/11/15 07:24:59;;;;;;;96.00;35.70;;;9.20;99.90;;;;;;5041546;28;20056;-69
2022/11/15 07:27:25;;;;;;;91.95;35.08;;;9.30;99.90;;;;;;5021379;28;20048;-69
2022/11/15 07:29:51;;;;;;;86.22;34.53;;;9.30;99.90;;;;;;5042026;28;20097;-69
2022/11/15 07:32:17;;;;;;;77.95;34.63;;;9.30;99.90;;;;;;5064877;28;20036;-69
2022/11/15 07:34:42;;;;;;;81.70;35.10;;;9.30;99.90;;;;;;5063509;28;20067;-69
2022/11/15 07:37:08;;;;;;;85.35;35.97;;;9.40;99.90;;;;;;5048703;28;20041;-69
2022/11/15 07:39:34;;;;;;;83.07;34.67;;;9.40;99.90;;;;;;5038458;28;20144;-68
2022/11/15 07:44:44;;;;;;;84.85;35.25;;;9.80;99.90;;;;;;5064467;28;20067;-69
2022/11/15 07:47:10;;;;;;;81.07;33.22;;;9.50;99.90;;;;;;5046092;28;20048;-69
2022/11/15 07:49:35;;;;;;;84.35;34.42;;;9.50;99.90;;;;;;5042105;28;20052;-69
2022/11/15 07:52:01;;;;;;;77.35;35.05;;;9.60;99.90;;;;;;5042292;28;20080;-69
2022/11/15 07:54:27;;;;;;;75.75;31.85;;;10.10;99.90;;;;;;5060530;28;20033;-70
2022/11/15 07:56:52;;;;;;;78.82;34.00;;;9.70;99.90;;;;;;5048200;28;20062;-70
2022/11/15 07:59:19;;;;;;;77.38;34.42;;;9.70;99.90;;;;;;5063942;28;20044;-70
2022/11/15 08:01:44;;;;;;;71.78;33.28;;;9.70;99.90;;;;;;5045222;28;20087;-70
2022/11/15 08:04:11;;;;;;;72.72;34.03;;;9.70;99.90;;;;;;5062791;28;20075;-70
2022/11/15 08:06:37;;;;;;;67.32;34.70;;;9.70;99.90;;;;;;5062911;28;20036;-70
2022/11/15 08:09:03;;;;;;;62.83;32.58;;;9.80;99.90;;;;;;5039395;28;20049;-70
2022/11/15 08:11:28;;;;;;;63.60;33.15;;;9.80;99.90;;;;;;5034271;28;20055;-70
2022/11/15 08:13:54;;;;;;;69.28;33.33;;;9.80;99.90;;;;;;5045057;28;20044;-70
2022/11/15 08:16:20;;;;;;;70.32;33.47;;;9.80;99.90;;;;;;5046967;28;20037;-70
2022/11/15 08:18:46;;;;;;;68.13;32.25;;;9.90;99.90;;;;;;5066496;28;20052;-71
2022/11/15 08:21:18;;;;;;;68.28;32.63;;;9.90;99.90;;;;;;5034553;28;20559;-70
2022/11/15 08:23:43;;;;;;;68.50;33.08;;;10.20;99.90;;;;;;5043820;28;20049;-70
2022/11/15 08:26:09;;;;;;;66.05;31.35;;;10.00;99.90;;;;;;5044792;28;20036;-70
2022/11/15 08:28:35;;;;;;;65.20;30.88;;;10.00;99.90;;;;;;5050443;28;20067;-70
2022/11/15 08:31:01;;;;;;;65.68;31.00;;;10.10;99.90;;;;;;5042479;28;20048;-69
2022/11/15 08:33:27;;;;;;;67.40;31.48;;;10.10;99.90;;;;;;5031351;28;20094;-69
2022/11/15 08:35:56;;;;;;;66.38;31.52;;;10.10;99.90;;;;;;5066296;28;20045;-69
2022/11/15 08:38:22;;;;;;;57.92;31.92;;;10.10;99.90;;;;;;5067339;28;20428;-70
2022/11/15 08:40:48;;;;;;;60.72;32.13;;;10.20;99.90;;;;;;5047631;28;20041;-70
2022/11/15 08:43:13;;;;;;;59.20;30.33;;;10.20;99.90;;;;;;5033053;28;20389;-70
2022/11/15 08:45:39;;;;;;;54.28;31.15;;;10.30;99.90;;;;;;5047574;28;20045;-70
2022/11/15 08:48:05;;;;;;;49.55;29.52;;;10.30;99.90;;;;;;5047922;28;20044;-70
2022/11/15 08:50:31;;;;;;;54.85;28.92;;;10.30;99.90;;;;;;5049119;28;20333;-69
2022/11/15 08:52:57;;;;;;;55.08;29.42;;;10.30;99.90;;;;;;5060732;28;20381;-70
2022/11/15 08:55:23;;;;;;;53.00;29.13;;;10.40;99.90;;;;;;5050711;28;20033;-70
2022/11/15 08:57:49;;;;;;;58.65;29.67;;;10.40;99.90;;;;;;5042393;28;20049;-69
2022/11/15 09:00:15;;;;;;;57.90;29.70;;;10.20;99.90;;;;;;5045974;28;20037;-69
2022/11/15 09:02:40;;;;;;;51.70;28.83;;;10.40;99.90;;;;;;5051685;28;20044;-70
2022/11/15 09:05:07;;;;;;;52.28;27.13;;;10.40;99.90;;;;;;5067916;28;20051;-70
2022/11/15 09:07:33;;;;;;;46.50;26.98;;;10.50;99.90;;;;;;5068261;28;20464;-69
2022/11/15 09:09:58;;;;;;;45.20;25.60;;;10.50;99.90;;;;;;5049278;28;20056;-70
2022/11/15 09:12:25;;;;;;;47.35;26.30;;;10.50;99.90;;;;;;5051311;28;20064;-68
2022/11/15 09:14:51;;;;;;;47.05;27.88;;;10.50;99.90;;;;;;5051850;28;20056;-69
2022/11/15 09:17:16;;;;;;;41.50;25.73;;;10.50;99.90;;;;;;5036655;28;20139;-68
2022/11/15 09:19:42;;;;;;;42.67;25.77;;;10.50;99.90;;;;;;5054086;28;20041;-69
2022/11/15 09:22:08;;;;;;;44.88;25.98;;;10.60;99.90;;;;;;5051147;28;20036;-68
2022/11/15 09:24:35;;;;;;;46.20;25.58;;;10.60;99.90;;;;;;5049568;28;20079;-68
2022/11/15 09:27:00;;;;;;;44.00;25.33;;;10.60;99.90;;;;;;5060606;28;20079;-69
2022/11/15 09:29:26;;;;;;;43.83;25.70;;;10.60;99.90;;;;;;5062196;28;20136;-69
2022/11/15 09:31:52;;;;;;;42.53;26.73;;;10.60;99.90;;;;;;5046977;28;20048;-69
2022/11/15 09:34:19;;;;;;;41.42;24.48;;;10.70;99.90;;;;;;5034879;28;20040;-69
2022/11/15 09:36:44;;;;;;;42.05;24.33;;;10.70;99.90;;;;;;5045418;28;20505;-69
2022/11/15 09:39:10;;;;;;;37.15;23.48;;;10.70;99.90;;;;;;5066290;28;20500;-69
2022/11/15 09:41:50;;;;;;;37.10;23.08;;;10.80;99.90;;;;;;5049856;28;20056;-69
2022/11/15 09:44:22;;;;;;;41.40;23.55;;;10.80;99.90;;;;;;5067724;28;20072;-70
2022/11/15 09:47:03;;;;;;;39.42;23.83;;;10.80;99.90;;;;;;5050657;28;20037;-69
2022/11/15 09:49:30;;;;;;;44.95;23.42;;;10.80;99.90;;;;;;5065663;28;20125;-69
2022/11/15 09:51:57;;;;;;;37.35;22.73;;;10.80;99.90;;;;;;5048560;28;20040;-69
2022/11/15 09:54:37;;;;;;;35.83;21.95;;;10.90;99.90;;;;;;5048200;28;20040;-70
2022/11/15 09:57:12;;;;;;;34.00;22.65;;;10.90;99.90;;;;;;5033621;28;20052;-69
2022/11/15 10:00:00;;;;;;;39.72;22.92;;;10.90;99.90;;;;;;5068352;28;20381;-70
2022/11/15 10:02:48;;;;;;;33.13;21.63;;;10.90;99.90;;;;;;5049970;28;20044;-70
2022/11/15 10:05:20;;;;;;;33.92;21.40;;;11.00;99.90;;;;;;5049613;28;20559;-69
2022/11/15 10:08:06;;;;;;;38.53;20.88;;;11.00;99.90;;;;;;5047147;28;20052;-69
2022/11/15 10:10:46;;;;;;;36.28;20.80;;;11.00;99.90;;;;;;5047711;28;20044;-69
2022/11/15 10:13:23;;;;;;;30.57;21.00;;;11.00;99.90;;;;;;5048396;28;20115;-69
2022/11/15 10:15:52;;;;;;;36.33;20.42;;;11.10;99.90;;;;;;5050304;28;20048;-70
2022/11/15 10:18:56;;;;;;;38.28;21.10;;;11.10;99.90;;;;;;5049885;28;20063;-69
2022/11/15 10:21:32;;;;;;;35.20;20.73;;;11.10;99.90;;;;;;5038449;28;20052;-69
2022/11/15 10:23:58;;;;;;;34.35;20.23;;;11.10;99.90;;;;;;5030608;28;20401;-69
2022/11/15 10:26:24;;;;;;;31.98;19.45;;;11.10;99.90;;;;;;5052996;28;20099;-70
2022/11/15 10:28:50;;;;;;;33.83;19.90;;;11.20;99.90;;;;;;5038944;28;20049;-70
2022/11/15 10:31:27;;;;;;;32.42;19.88;;;11.20;99.90;;;;;;5054006;28;20039;-69
2022/11/15 10:34:11;;;;;;;31.60;18.63;;;11.20;99.90;;;;;;5048102;28;20402;-69
2022/11/15 10:36:36;;;;;;;29.73;18.73;;;11.30;99.90;;;;;;5052878;28;20044;-70
2022/11/15 10:39:03;;;;;;;33.63;18.50;;;11.30;99.90;;;;;;5059465;28;20064;-69
2022/11/15 10:41:34;;;;;;;30.50;18.98;;;11.40;99.90;;;;;;5063215;28;20409;-69
2022/11/15 10:44:20;;;;;;;31.40;18.65;;;11.40;99.90;;;;;;5051473;28;20400;-69
2022/11/15 10:46:53;;;;;;;26.70;17.05;;;11.40;99.90;;;;;;5033629;28;20054;-69
2022/11/15 10:49:24;;;;;;;26.73;16.65;;;11.50;99.90;;;;;;5053241;28;20056;-69
2022/11/15 10:52:14;;;;;;;26.33;17.27;;;11.50;99.90;;;;;;5048218;28;20049;-69
2022/11/15 10:54:50;;;;;;;25.88;17.23;;;11.50;99.90;;;;;;5047489;28;20462;-70
2022/11/15 10:57:19;;;;;;;24.90;16.38;;;11.60;99.90;;;;;;5045179;28;20129;-69
2022/11/15 10:59:56;;;;;;;26.90;16.45;;;11.50;99.90;;;;;;5042381;28;20097;-69
2022/11/15 11:02:35;;;;;;;27.33;16.58;;;11.60;99.90;;;;;;5048274;28;20040;-69
2022/11/15 11:05:03;;;;;;;23.23;15.55;;;11.60;99.90;;;;;;5065795;28;20409;-69
2022/11/15 11:07:34;;;;;;;23.10;15.48;;;11.60;99.90;;;;;;5051066;28;20097;-69
2022/11/15 11:10:05;;;;;;;24.40;14.93;;;11.70;99.90;;;;;;5066136;28;20409;-70
2022/11/15 11:12:33;;;;;;;26.23;14.30;;;11.70;99.90;;;;;;5054769;28;20132;-69
2022/11/15 11:15:02;;;;;;;21.70;14.32;;;11.70;99.90;;;;;;5066919;28;20078;-69
2022/11/15 11:17:46;;;;;;;18.70;12.98;;;11.70;99.90;;;;;;5048301;28;20032;-70
2022/11/15 11:20:29;;;;;;;21.08;12.77;;;11.70;99.90;;;;;;5068188;28;20036;-69
2022/11/15 11:23:02;;;;;;;18.95;12.13;;;11.70;99.90;;;;;;5031034;28;20071;-69
2022/11/15 11:25:50;;;;;;;19.15;11.88;;;11.70;99.90;;;;;;5064158;28;20033;-69
2022/11/15 11:28:41;;;;;;;18.88;11.55;;;11.80;99.90;;;;;;5048560;28;20049;-69
2022/11/15 11:31:23;;;;;;;20.27;11.77;;;11.80;99.90;;;;;;5067065;28;20041;-69
2022/11/15 11:34:00;;;;;;;18.48;11.00;;;11.90;99.90;;;;;;5050434;28;20076;-69
2022/11/15 11:36:54;;;;;;;19.10;10.45;;;11.90;99.90;;;;;;5049902;28;20094;-69
2022/11/15 11:39:53;;;;;;;19.80;11.30;;;11.90;99.90;;;;;;5051890;28;20040;-70
2022/11/15 11:42:41;;;;;;;17.48;9.95;;;11.90;99.90;;;;;;5048705;28;20037;-70
2022/11/15 11:45:13;;;;;;;15.88;9.20;;;11.90;99.90;;;;;;5049124;28;20405;-69
2022/11/15 11:48:04;;;;;;;13.57;9.00;;;11.90;99.90;;;;;;5045641;28;20051;-70
2022/11/15 11:50:31;;;;;;;14.27;8.73;;;12.10;99.90;;;;;;5054165;28;20048;-69
2022/11/15 11:53:03;;;;;;;16.20;8.35;;;11.90;99.90;;;;;;5048868;28;20504;-70
2022/11/15 11:55:46;;;;;;;16.55;8.07;;;11.90;99.90;;;;;;5051704;28;20044;-70
2022/11/15 11:58:34;;;;;;;12.70;6.63;;;11.90;99.90;;;;;;5048232;28;20087;-69
2022/11/15 12:01:24;;;;;;;11.95;6.00;;;11.90;99.90;;;;;;5069415;28;20412;-69
2022/11/15 12:04:11;;;;;;;10.95;5.05;;;11.90;99.90;;;;;;5050954;28;20440;-69
2022/11/15 12:06:44;;;;;;;12.13;4.72;;;11.90;99.90;;;;;;5030359;28;20076;-69
2022/11/15 12:09:33;;;;;;;12.27;4.53;;;11.90;99.90;;;;;;5070377;28;20048;-69
2022/11/15 12:12:05;;;;;;;10.48;3.83;;;12.00;99.90;;;;;;5071072;28;20443;-69
2022/11/15 12:15:06;;;;;;;8.60;4.05;;;12.00;99.90;;;;;;5068298;28;20110;-68
2022/11/15 12:17:32;;;;;;;10.13;3.38;;;12.00;99.90;;;;;;4964880;28;20426;-69
2022/11/15 12:20:15;;;;;;;12.32;3.33;;;12.00;99.90;;;;;;5036049;28;20063;-69
2022/11/15 12:22:47;;;;;;;10.57;3.20;;;12.00;99.90;;;;;;5048782;28;20460;-69
2022/11/15 12:25:31;;;;;;;11.25;3.00;;;12.00;99.90;;;;;;5052426;28;20040;-69
2022/11/15 12:28:18;;;;;;;6.40;2.47;;;11.90;99.90;;;;;;5049868;28;20457;-69
2022/11/15 12:30:51;;;;;;;10.55;2.60;;;11.90;99.90;;;;;;5052760;28;20036;-70
2022/11/15 12:33:32;;;;;;;9.30;2.90;;;11.90;99.90;;;;;;5069771;28;20600;-68
2022/11/15 12:36:04;;;;;;;6.88;2.53;;;11.90;99.90;;;;;;5052012;28;20127;-70
2022/11/15 12:39:00;;;;;;;6.82;2.45;;;11.90;99.90;;;;;;5067431;28;20056;-69
2022/11/15 12:41:33;;;;;;;10.63;2.95;;;11.90;99.90;;;;;;5052909;28;20045;-69
2022/11/15 12:44:00;;;;;;;7.07;2.70;;;12.00;99.90;;;;;;5069305;28;20105;-70
2022/11/15 12:46:28;;;;;;;9.93;2.80;;;12.10;99.90;;;;;;5069512;28;20102;-71
2022/11/15 12:48:59;;;;;;;8.57;2.95;;;12.00;99.90;;;;;;5050778;28;20501;-69
2022/11/15 12:51:43;;;;;;;9.05;2.83;;;12.00;99.90;;;;;;5069708;28;20040;-69
2022/11/15 12:54:24;;;;;;;9.18;2.92;;;12.10;99.90;;;;;;5064703;28;20102;-69
2022/11/15 12:57:07;;;;;;;8.70;3.22;;;12.10;99.90;;;;;;5047709;28;20505;-70
2022/11/15 13:00:01;;;;;;;9.15;2.83;;;12.10;99.90;;;;;;5051046;28;20166;-69
2022/11/15 13:02:38;;;;;;;12.75;3.28;;;12.20;99.90;;;;;;5038147;28;20032;-69
2022/11/15 13:05:19;;;;;;;7.57;2.70;;;12.10;99.90;;;;;;5034069;28;20081;-69
2022/11/15 13:07:44;;;;;;;9.32;2.67;;;12.20;99.90;;;;;;5034151;28;20059;-69